Time;durP1;ratioP1;P1;durP2;ratioP2;P2;SDS_P1;SDS_P2;PMS_P1;PMS_P2;Temp;Humidity;BMP_temperature;BMP_pressure;BME280_temperature;BME280_humidity;BME280_pressure;Samples;Min_cycle;Max_cycle;Signal;HPM_P1;HPM_P2
2023/07/08 00:01:29;;;;;;;;;;;;;;;;;;5046135;28;19924;-60
2023/07/08 00:03:55;;;;;;;;;;;;;;;;;;5046202;28;19924;-60
2023/07/08 00:06:21;;;;;;;;;;;;;;;;;;5046625;28;19928;-61
2023/07/08 00:08:47;;;;;;;;;;;;;;;;;;5046106;28;19990;-60
2023/07/08 00:11:13;;;;;;;;;;;;;;;;;;5046925;28;20360;-60
2023/07/08 00:13:39;;;;;;;;;;;;;;;;;;5045559;28;19932;-60
2023/07/08 00:16:05;;;;;;;;;;;;;;;;;;5046591;28;19931;-60
2023/07/08 00:18:31;;;;;;;;;;;;;;;;;;5058147;28;20041;-60
2023/07/08 00:20:58;;;;;;;;;;;;;;;;;;5065685;28;20015;-60
2023/07/08 00:23:24;;;;;;;;;;;;;;;;;;5048512;28;19925;-60
2023/07/08 00:25:51;;;;;;;;;;;;;;;;;;5046079;28;20102;-60
2023/07/08 00:28:17;;;;;;;;;;;;;;;;;;5046540;28;19933;-60
2023/07/08 00:30:43;;;;;;;;;;;;;;;;;;5046177;28;19925;-60
2023/07/08 00:33:09;;;;;;;;;;;;;;;;;;5045576;28;19925;-60
2023/07/08 00:35:35;;;;;;;;;;;;;;;;;;5045259;28;19932;-59
2023/07/08 00:38:12;;;;;;;;;;;;;;;;;;5045063;28;19929;-60
2023/07/08 00:40:37;;;;;;;;;;;;;;;;;;5046024;28;19970;-60
2023/07/08 00:43:03;;;;;;;;;;;;;;;;;;5045595;28;19928;-60
2023/07/08 00:45:29;;;;;;;;;;;;;;;;;;5045112;28;19947;-60
2023/07/08 00:47:55;;;;;;;;;;;;;;;;;;5045781;28;19932;-60
2023/07/08 00:50:21;;;;;;;;;;;;;;;;;;5027929;28;19925;-60
2023/07/08 00:52:47;;;;;;;;;;;;;;;;;;5044600;28;20393;-60
2023/07/08 00:55:13;;;;;;;;;;;;;;;;;;5045284;28;19968;-60
2023/07/08 00:57:40;;;;;;;;;;;;;;;;;;5045437;28;19925;-60
2023/07/08 01:00:06;;;;;;;;;;;;;;;;;;5051866;28;19924;-59
2023/07/08 01:02:32;;;;;;;;;;;;;;;;;;5045210;28;19925;-59
2023/07/08 01:04:58;;;;;;;;;;;;;;;;;;5045785;28;20394;-60
2023/07/08 01:07:24;;;;;;;;;;;;;;;;;;5043397;28;19931;-60
2023/07/08 01:09:49;;;;;;;;;;;;;;;;;;5045882;28;19925;-60
2023/07/08 01:12:15;;;;;;;;;;;;;;;;;;5124314;22;19929;-65
2023/07/08 01:14:42;;;;;;;;;;;;;;;;;;5041082;28;20291;-66
2023/07/08 01:17:13;;;;;;;;;;;;;;;;;;5044017;28;19972;-67
2023/07/08 01:19:39;;;;;;;;;;;;;;;;;;5045360;28;19932;-67
2023/07/08 01:22:05;;;;;;;;;;;;;;;;;;5036009;28;19926;-66
2023/07/08 01:24:31;;;;;;;;;;;;;;;;;;5045360;28;19936;-67
2023/07/08 01:26:57;;;;;;;;;;;;;;;;;;5044427;28;19943;-67
2023/07/08 01:29:23;;;;;;;;;;;;;;;;;;5044590;28;19925;-67
2023/07/08 01:31:49;;;;;;;;;;;;;;;;;;5031653;28;19932;-67
2023/07/08 01:34:15;;;;;;;;;;;;;;;;;;5044503;28;19929;-66
2023/07/08 01:36:42;;;;;;;;;;;;;;;;;;5033484;28;20288;-66
2023/07/08 01:39:08;;;;;;;;;;;;;;;;;;5035725;28;20283;-66
2023/07/08 01:41:34;;;;;;;;;;;;;;;;;;5042676;28;19924;-65
2023/07/08 01:44:00;;;;;;;;;;;;;;;;;;5036689;28;19931;-66
2023/07/08 01:46:26;;;;;;;;;;;;;;;;;;5044610;28;19925;-66
2023/07/08 01:48:52;;;;;;;;;;;;;;;;;;5044941;28;19979;-66
2023/07/08 01:51:18;;;;;;;;;;;;;;;;;;5043669;28;19932;-66
2023/07/08 01:53:44;;;;;;;;;;;;;;;;;;5042823;28;19926;-66
2023/07/08 01:56:10;;;;;;;;;;;;;;;;;;5045199;28;20401;-66
2023/07/08 01:58:35;;;;;;;;;;;;;;;;;;5044224;28;20491;-65
2023/07/08 02:01:01;;;;;;;;;;;;;;;;;;5045066;28;19924;-66
2023/07/08 02:03:27;;;;;;;;;;;;;;;;;;5044303;28;19929;-66
2023/07/08 02:05:54;;;;;;;;;;;;;;;;;;5043768;28;19975;-66
2023/07/08 02:08:19;;;;;;;;;;;;;;;;;;5044223;28;20398;-66
2023/07/08 02:10:45;;;;;;;;;;;;;;;;;;5043984;28;19967;-66
2023/07/08 02:13:11;;;;;;;;;;;;;;;;;;5044361;28;20019;-66
2023/07/08 02:15:37;;;;;;;;;;;;;;;;;;5043710;28;19974;-66
2023/07/08 02:18:03;;;;;;;;;;;;;;;;;;5043503;28;20374;-67
2023/07/08 02:20:29;;;;;;;;;;;;;;;;;;5044707;28;19950;-66
2023/07/08 02:22:55;;;;;;;;;;;;;;;;;;5029463;28;19925;-66
2023/07/08 02:25:21;;;;;;;;;;;;;;;;;;5044290;28;19936;-66
2023/07/08 02:27:47;;;;;;;;;;;;;;;;;;5043302;28;19971;-66
2023/07/08 02:30:13;;;;;;;;;;;;;;;;;;5044331;28;19925;-66
2023/07/08 02:32:39;;;;;;;;;;;;;;;;;;5043661;28;20384;-66
2023/07/08 02:35:04;;;;;;;;;;;;;;;;;;5044042;28;19947;-67
2023/07/08 02:37:30;;;;;;;;;;;;;;;;;;5043216;28;19932;-66
2023/07/08 02:39:56;;;;;;;;;;;;;;;;;;5043014;28;19925;-66
2023/07/08 02:42:22;;;;;;;;;;;;;;;;;;5044209;28;20298;-66
2023/07/08 02:44:48;;;;;;;;;;;;;;;;;;5043728;28;19933;-66
2023/07/08 02:47:14;;;;;;;;;;;;;;;;;;5043948;28;19990;-66
2023/07/08 02:49:40;;;;;;;;;;;;;;;;;;5033228;28;20023;-66
2023/07/08 02:52:06;;;;;;;;;;;;;;;;;;5043252;28;20314;-66
2023/07/08 02:54:32;;;;;;;;;;;;;;;;;;5043767;28;20343;-66
2023/07/08 02:56:58;;;;;;;;;;;;;;;;;;5043144;28;19933;-66
2023/07/08 02:59:24;;;;;;;;;;;;;;;;;;5044227;28;19929;-67
2023/07/08 03:01:50;;;;;;;;;;;;;;;;;;5043496;28;19929;-66
2023/07/08 03:04:16;;;;;;;;;;;;;;;;;;5044008;28;19994;-66
2023/07/08 03:06:42;;;;;;;;;;;;;;;;;;5042838;28;20313;-67
2023/07/08 03:09:07;;;;;;;;;;;;;;;;;;5043323;28;20587;-66
2023/07/08 03:11:33;;;;;;;;;;;;;;;;;;5043629;28;19983;-67
2023/07/08 03:13:59;;;;;;;;;;;;;;;;;;5042896;28;20173;-66
2023/07/08 03:16:25;;;;;;;;;;;;;;;;;;5045279;28;19925;-66
2023/07/08 03:18:51;;;;;;;;;;;;;;;;;;5048386;28;20006;-66
2023/07/08 03:21:17;;;;;;;;;;;;;;;;;;5041466;28;19933;-66
2023/07/08 03:23:43;;;;;;;;;;;;;;;;;;5039127;28;20011;-66
2023/07/08 03:26:09;;;;;;;;;;;;;;;;;;5047508;28;19921;-66
2023/07/08 03:28:35;;;;;;;;;;;;;;;;;;5048080;28;19929;-66
2023/07/08 03:31:01;;;;;;;;;;;;;;;;;;5047092;28;20656;-66
2023/07/08 03:33:27;;;;;;;;;;;;;;;;;;5047169;28;19998;-66
2023/07/08 03:35:53;;;;;;;;;;;;;;;;;;5046771;28;19971;-66
2023/07/08 03:38:19;;;;;;;;;;;;;;;;;;5047060;28;20401;-66
2023/07/08 03:40:45;;;;;;;;;;;;;;;;;;5046842;28;20329;-66
2023/07/08 03:43:10;;;;;;;;;;;;;;;;;;5047004;28;20232;-66
2023/07/08 03:45:36;;;;;;;;;;;;;;;;;;5047766;28;20052;-66
2023/07/08 03:48:02;;;;;;;;;;;;;;;;;;5046426;28;19924;-66
2023/07/08 03:50:28;;;;;;;;;;;;;;;;;;5047096;28;19921;-66
2023/07/08 03:52:54;;;;;;;;;;;;;;;;;;5046412;28;19925;-66
2023/07/08 03:55:20;;;;;;;;;;;;;;;;;;5046960;28;20013;-66
2023/07/08 03:57:46;;;;;;;;;;;;;;;;;;5046714;28;19987;-66
2023/07/08 04:00:12;;;;;;;;;;;;;;;;;;5046880;28;19933;-66
2023/07/08 04:02:38;;;;;;;;;;;;;;;;;;5047215;28;19971;-66
2023/07/08 04:05:04;;;;;;;;;;;;;;;;;;5047499;28;19929;-66
2023/07/08 04:07:30;;;;;;;;;;;;;;;;;;5045935;28;19929;-67
2023/07/08 04:09:56;;;;;;;;;;;;;;;;;;5031674;28;19925;-67
2023/07/08 04:12:22;;;;;;;;;;;;;;;;;;5046420;28;19935;-66
2023/07/08 04:14:47;;;;;;;;;;;;;;;;;;5046955;28;20015;-66
2023/07/08 04:17:13;;;;;;;;;;;;;;;;;;5047116;28;19931;-66
2023/07/08 04:19:39;;;;;;;;;;;;;;;;;;5046453;28;19951;-66
2023/07/08 04:22:07;;;;;;;;;;;;;;;;;;5031915;28;20135;-66
2023/07/08 04:24:33;;;;;;;;;;;;;;;;;;5045147;28;20008;-66
2023/07/08 04:26:59;;;;;;;;;;;;;;;;;;5044929;28;20014;-66
2023/07/08 04:29:25;;;;;;;;;;;;;;;;;;5046340;28;20394;-66
2023/07/08 04:31:51;;;;;;;;;;;;;;;;;;5045481;28;19928;-66
2023/07/08 04:34:17;;;;;;;;;;;;;;;;;;5046765;28;20469;-66
2023/07/08 04:36:43;;;;;;;;;;;;;;;;;;5045828;28;19987;-66
2023/07/08 04:39:09;;;;;;;;;;;;;;;;;;5046640;28;19921;-66
2023/07/08 04:41:35;;;;;;;;;;;;;;;;;;5046377;28;19947;-67
2023/07/08 04:44:02;;;;;;;;;;;;;;;;;;5045265;28;19924;-67
2023/07/08 04:46:28;;;;;;;;;;;;;;;;;;5046227;28;19925;-66
2023/07/08 04:48:55;;;;;;;;;;;;;;;;;;5045690;28;19932;-66
2023/07/08 04:51:21;;;;;;;;;;;;;;;;;;5044985;28;19931;-66
2023/07/08 04:53:48;;;;;;;;;;;;;;;;;;5045722;28;20015;-66
2023/07/08 04:56:14;;;;;;;;;;;;;;;;;;5045811;28;19932;-67
2023/07/08 04:58:40;;;;;;;;;;;;;;;;;;5061472;28;20528;-68
2023/07/08 05:01:06;;;;;;;;;;;;;;;;;;5046295;28;19947;-66
2023/07/08 05:03:32;;;;;;;;;;;;;;;;;;5045321;28;19925;-66
2023/07/08 05:05:58;;;;;;;;;;;;;;;;;;5043076;28;20010;-66
2023/07/08 05:08:24;;;;;;;;;;;;;;;;;;5045401;28;20011;-65
2023/07/08 05:10:50;;;;;;;;;;;;;;;;;;5046824;28;19925;-66
2023/07/08 05:13:16;;;;;;;;;;;;;;;;;;5045826;28;19931;-66
2023/07/08 05:15:42;;;;;;;;;;;;;;;;;;5044642;28;20350;-66
2023/07/08 05:18:08;;;;;;;;;;;;;;;;;;5045495;28;19929;-66
2023/07/08 05:20:35;;;;;;;;;;;;;;;;;;5045100;28;19925;-66
2023/07/08 05:23:01;;;;;;;;;;;;;;;;;;5044363;28;20442;-67
2023/07/08 05:25:27;;;;;;;;;;;;;;;;;;5045408;28;19928;-67
2023/07/08 05:27:53;;;;;;;;;;;;;;;;;;5044356;28;19925;-66
2023/07/08 05:30:19;;;;;;;;;;;;;;;;;;5045955;28;19967;-66
2023/07/08 05:32:45;;;;;;;;;;;;;;;;;;5044927;28;19933;-66
2023/07/08 05:35:11;;;;;;;;;;;;;;;;;;5044935;28;20173;-66
2023/07/08 05:37:37;;;;;;;;;;;;;;;;;;5043962;28;19925;-66
2023/07/08 05:40:04;;;;;;;;;;;;;;;;;;5044161;28;19991;-66
2023/07/08 05:42:30;;;;;;;;;;;;;;;;;;5045489;28;19924;-67
2023/07/08 05:44:56;;;;;;;;;;;;;;;;;;5060236;28;19920;-67
2023/07/08 05:47:22;;;;;;;;;;;;;;;;;;5044883;28;20444;-66
2023/07/08 05:49:48;;;;;;;;;;;;;;;;;;5044709;28;19964;-65
2023/07/08 05:52:14;;;;;;;;;;;;;;;;;;5043602;28;20000;-65
2023/07/08 05:54:39;;;;;;;;;;;;;;;;;;5044424;28;20391;-67
2023/07/08 05:57:05;;;;;;;;;;;;;;;;;;5044239;28;20028;-68
2023/07/08 05:59:31;;;;;;;;;;;;;;;;;;5044720;28;19924;-67
2023/07/08 06:01:57;;;;;;;;;;;;;;;;;;5043675;28;19929;-67
2023/07/08 06:04:23;;;;;;;;;;;;;;;;;;5045022;28;19947;-66
2023/07/08 06:06:49;;;;;;;;;;;;;;;;;;5045584;28;19932;-66
2023/07/08 06:09:15;;;;;;;;;;;;;;;;;;5044997;28;20651;-66
2023/07/08 06:11:41;;;;;;;;;;;;;;;;;;5042261;28;19932;-66
2023/07/08 06:14:07;;;;;;;;;;;;;;;;;;5043884;28;19963;-66
2023/07/08 06:16:34;;;;;;;;;;;;;;;;;;5044415;28;20333;-66
2023/07/08 06:19:00;;;;;;;;;;;;;;;;;;5044108;28;19932;-67
2023/07/08 06:21:26;;;;;;;;;;;;;;;;;;5035995;28;19925;-68
2023/07/08 06:23:52;;;;;;;;;;;;;;;;;;5036899;28;19925;-69
2023/07/08 06:26:18;;;;;;;;;;;;;;;;;;5044253;28;20378;-70
2023/07/08 06:28:44;;;;;;;;;;;;;;;;;;5044190;28;19931;-68
2023/07/08 06:31:12;;;;;;;;;;;;;;;;;;5043925;28;19925;-68
2023/07/08 06:33:38;;;;;;;;;;;;;;;;;;5042910;28;19932;-68
2023/07/08 06:36:06;;;;;;;;;;;;;;;;;;5043541;28;19936;-67
2023/07/08 06:38:32;;;;;;;;;;;;;;;;;;5044024;28;20008;-67
2023/07/08 06:40:58;;;;;;;;;;;;;;;;;;5043498;28;20023;-67
2023/07/08 06:43:24;;;;;;;;;;;;;;;;;;5043858;28;19979;-66
2023/07/08 06:45:50;;;;;;;;;;;;;;;;;;5043216;28;20017;-66
2023/07/08 06:48:16;;;;;;;;;;;;;;;;;;5044194;28;20003;-65
2023/07/08 06:50:42;;;;;;;;;;;;;;;;;;5042191;28;20043;-67
2023/07/08 06:53:08;;;;;;;;;;;;;;;;;;5043842;28;19932;-67
2023/07/08 06:55:34;;;;;;;;;;;;;;;;;;5042609;28;19924;-66
2023/07/08 06:58:00;;;;;;;;;;;;;;;;;;5043762;28;19925;-67
2023/07/08 07:00:26;;;;;;;;;;;;;;;;;;5044586;28;19925;-67
2023/07/08 07:02:52;;;;;;;;;;;;;;;;;;5043529;28;19925;-67
2023/07/08 07:05:18;;;;;;;;;;;;;;;;;;5044081;28;19948;-67
2023/07/08 07:07:44;;;;;;;;;;;;;;;;;;5042464;28;20273;-67
2023/07/08 07:10:10;;;;;;;;;;;;;;;;;;5043941;28;20438;-67
2023/07/08 07:12:36;;;;;;;;;;;;;;;;;;5044180;28;19968;-67
2023/07/08 07:15:01;;;;;;;;;;;;;;;;;;5043136;28;19924;-67
2023/07/08 07:17:27;;;;;;;;;;;;;;;;;;5043585;28;19933;-67
2023/07/08 07:19:53;;;;;;;;;;;;;;;;;;5042659;28;19925;-65
2023/07/08 07:22:19;;;;;;;;;;;;;;;;;;5028703;28;19971;-65
2023/07/08 07:24:45;;;;;;;;;;;;;;;;;;5043838;28;19924;-66
2023/07/08 07:27:11;;;;;;;;;;;;;;;;;;5043604;28;19928;-66
2023/07/08 07:29:37;;;;;;;;;;;;;;;;;;5042771;28;19978;-65
2023/07/08 07:32:03;;;;;;;;;;;;;;;;;;5043056;28;19925;-65
2023/07/08 07:34:29;;;;;;;;;;;;;;;;;;5043114;28;20297;-65
2023/07/08 07:36:55;;;;;;;;;;;;;;;;;;5042522;28;20420;-66
2023/07/08 07:39:21;;;;;;;;;;;;;;;;;;5043265;28;19936;-65
2023/07/08 07:41:47;;;;;;;;;;;;;;;;;;5042859;28;19925;-65
2023/07/08 07:44:12;;;;;;;;;;;;;;;;;;5040571;28;19932;-66
2023/07/08 07:46:38;;;;;;;;;;;;;;;;;;5033892;28;19975;-66
2023/07/08 07:49:04;;;;;;;;;;;;;;;;;;5037406;28;19956;-65
2023/07/08 07:51:30;;;;;;;;;;;;;;;;;;5039187;28;21438;-66
2023/07/08 07:53:56;;;;;;;;;;;;;;;;;;5042482;28;19931;-66
2023/07/08 07:56:22;;;;;;;;;;;;;;;;;;5041406;28;19983;-66
2023/07/08 07:58:48;;;;;;;;;;;;;;;;;;5030680;28;19936;-66
2023/07/08 08:01:15;;;;;;;;;;;;;;;;;;5035956;28;19932;-66
2023/07/08 08:03:41;;;;;;;;;;;;;;;;;;5045941;28;19935;-65
2023/07/08 08:06:07;;;;;;;;;;;;;;;;;;5045027;28;19924;-66
2023/07/08 08:08:33;;;;;;;;;;;;;;;;;;5046257;28;19932;-66
2023/07/08 08:10:59;;;;;;;;;;;;;;;;;;5040408;28;19999;-66
2023/07/08 08:13:25;;;;;;;;;;;;;;;;;;5029884;28;19932;-66
2023/07/08 08:15:50;;;;;;;;;;;;;;;;;;5045543;28;19929;-66
2023/07/08 08:18:16;;;;;;;;;;;;;;;;;;5047563;28;19948;-66
2023/07/08 08:20:42;;;;;;;;;;;;;;;;;;5044209;28;19956;-66
2023/07/08 08:23:08;;;;;;;;;;;;;;;;;;5033812;28;19928;-66
2023/07/08 08:25:34;;;;;;;;;;;;;;;;;;5046399;28;19925;-65
2023/07/08 08:28:00;;;;;;;;;;;;;;;;;;5046045;28;19936;-65
2023/07/08 08:30:26;;;;;;;;;;;;;;;;;;5046255;28;19925;-66
2023/07/08 08:32:52;;;;;;;;;;;;;;;;;;5045717;28;20576;-66
2023/07/08 08:35:18;;;;;;;;;;;;;;;;;;5044715;28;19929;-66
2023/07/08 08:37:44;;;;;;;;;;;;;;;;;;5034760;28;19925;-66
2023/07/08 08:40:10;;;;;;;;;;;;;;;;;;5045413;28;19932;-66
2023/07/08 08:42:36;;;;;;;;;;;;;;;;;;5046148;28;19933;-65
2023/07/08 08:45:02;;;;;;;;;;;;;;;;;;5044440;28;19929;-66
2023/07/08 08:47:28;;;;;;;;;;;;;;;;;;5037859;28;19928;-66
2023/07/08 08:49:54;;;;;;;;;;;;;;;;;;5044953;28;19932;-66
2023/07/08 08:52:20;;;;;;;;;;;;;;;;;;5046060;28;19931;-66
2023/07/08 08:54:46;;;;;;;;;;;;;;;;;;5046004;28;20015;-66
2023/07/08 08:57:11;;;;;;;;;;;;;;;;;;5046337;28;19940;-65
2023/07/08 08:59:38;;;;;;;;;;;;;;;;;;5045767;28;19929;-65
2023/07/08 09:02:04;;;;;;;;;;;;;;;;;;5045150;28;20012;-65
2023/07/08 09:04:29;;;;;;;;;;;;;;;;;;5046451;28;20007;-66
2023/07/08 09:06:55;;;;;;;;;;;;;;;;;;5044632;28;19924;-66
2023/07/08 09:09:21;;;;;;;;;;;;;;;;;;5045294;28;19928;-66
2023/07/08 09:11:47;;;;;;;;;;;;;;;;;;5045009;28;19924;-65
2023/07/08 09:14:13;;;;;;;;;;;;;;;;;;5044122;28;20507;-65
2023/07/08 09:16:39;;;;;;;;;;;;;;;;;;5045802;28;20023;-65
2023/07/08 09:19:05;;;;;;;;;;;;;;;;;;5045560;28;19939;-65
2023/07/08 09:21:31;;;;;;;;;;;;;;;;;;5036584;28;20004;-65
2023/07/08 09:24:00;;;;;;;;;;;;;;;;;;5038494;28;19975;-65
2023/07/08 09:26:26;;;;;;;;;;;;;;;;;;5027514;28;20011;-66
2023/07/08 09:28:52;;;;;;;;;;;;;;;;;;5031521;28;20004;-66
2023/07/08 09:31:17;;;;;;;;;;;;;;;;;;5041074;28;19947;-66
2023/07/08 09:33:43;;;;;;;;;;;;;;;;;;5035544;28;19925;-66
2023/07/08 09:36:09;;;;;;;;;;;;;;;;;;5039285;28;19924;-65
2023/07/08 09:38:35;;;;;;;;;;;;;;;;;;5045493;28;19921;-65
2023/07/08 09:41:01;;;;;;;;;;;;;;;;;;5044733;28;19990;-66
2023/07/08 09:43:27;;;;;;;;;;;;;;;;;;5044788;28;19921;-66
2023/07/08 09:45:53;;;;;;;;;;;;;;;;;;5044510;28;19978;-66
2023/07/08 09:48:19;;;;;;;;;;;;;;;;;;5045199;28;19925;-67
2023/07/08 09:50:45;;;;;;;;;;;;;;;;;;5044181;28;20386;-66
2023/07/08 09:53:11;;;;;;;;;;;;;;;;;;5045104;28;20042;-66
2023/07/08 09:55:37;;;;;;;;;;;;;;;;;;5044770;28;19932;-66
2023/07/08 09:58:03;;;;;;;;;;;;;;;;;;5043924;28;20083;-61
2023/07/08 10:00:29;;;;;;;;;;;;;;;;;;5044775;28;20687;-61
2023/07/08 10:02:55;;;;;;;;;;;;;;;;;;5044628;28;19925;-65
2023/07/08 10:05:21;;;;;;;;;;;;;;;;;;5043476;28;19928;-64
2023/07/08 10:07:46;;;;;;;;;;;;;;;;;;5043217;28;19932;-64
2023/07/08 10:10:14;;;;;;;;;;;;;;;;;;5044077;28;20084;-64
2023/07/08 10:12:40;;;;;;;;;;;;;;;;;;5043864;28;20802;-64
2023/07/08 10:15:06;;;;;;;;;;;;;;;;;;5044624;28;19971;-64
2023/07/08 10:17:33;;;;;;;;;;;;;;;;;;5044780;28;20459;-65
2023/07/08 10:19:59;;;;;;;;;;;;;;;;;;5042857;28;20017;-65
2023/07/08 10:22:25;;;;;;;;;;;;;;;;;;5029972;28;20335;-65
2023/07/08 10:24:51;;;;;;;;;;;;;;;;;;5044441;28;19928;-65
2023/07/08 10:27:17;;;;;;;;;;;;;;;;;;5044327;28;20271;-64
2023/07/08 10:29:43;;;;;;;;;;;;;;;;;;5043714;28;19931;-65
2023/07/08 10:32:09;;;;;;;;;;;;;;;;;;5043985;28;19928;-65
2023/07/08 10:34:35;;;;;;;;;;;;;;;;;;5043982;28;19932;-65
2023/07/08 10:37:00;;;;;;;;;;;;;;;;;;5043378;28;19933;-65
2023/07/08 10:39:26;;;;;;;;;;;;;;;;;;5043642;28;19920;-65
2023/07/08 10:41:52;;;;;;;;;;;;;;;;;;5042827;28;19925;-65
2023/07/08 10:44:18;;;;;;;;;;;;;;;;;;5044232;28;20301;-65
2023/07/08 10:46:44;;;;;;;;;;;;;;;;;;5044258;28;20488;-64
2023/07/08 10:49:10;;;;;;;;;;;;;;;;;;5043882;28;19925;-65
2023/07/08 10:51:36;;;;;;;;;;;;;;;;;;5043322;28;19928;-65
2023/07/08 10:54:03;;;;;;;;;;;;;;;;;;5042590;28;19925;-65
2023/07/08 10:56:29;;;;;;;;;;;;;;;;;;5043981;28;20070;-66
2023/07/08 10:58:54;;;;;;;;;;;;;;;;;;5043624;28;20011;-66
2023/07/08 11:01:20;;;;;;;;;;;;;;;;;;5043952;28;20422;-65
2023/07/08 11:03:46;;;;;;;;;;;;;;;;;;5043107;28;19928;-65
2023/07/08 11:06:13;;;;;;;;;;;;;;;;;;5042973;28;19925;-65
2023/07/08 11:08:39;;;;;;;;;;;;;;;;;;5043280;28;19932;-65
2023/07/08 11:11:04;;;;;;;;;;;;;;;;;;5042359;28;19925;-65
2023/07/08 11:13:30;;;;;;;;;;;;;;;;;;5043148;28;19976;-65
2023/07/08 11:15:56;;;;;;;;;;;;;;;;;;5042996;28;19925;-65
2023/07/08 11:18:22;;;;;;;;;;;;;;;;;;5043228;28;19928;-66
2023/07/08 11:20:48;;;;;;;;;;;;;;;;;;5040952;28;20008;-65
2023/07/08 11:23:14;;;;;;;;;;;;;;;;;;5031207;28;19947;-65
2023/07/08 11:25:40;;;;;;;;;;;;;;;;;;5043752;28;19929;-66
2023/07/08 11:28:06;;;;;;;;;;;;;;;;;;5043193;28;19972;-65
2023/07/08 11:30:32;;;;;;;;;;;;;;;;;;5043199;28;19937;-65
2023/07/08 11:32:58;;;;;;;;;;;;;;;;;;5042985;28;20465;-65
2023/07/08 11:35:24;;;;;;;;;;;;;;;;;;5042405;28;20011;-65
2023/07/08 11:37:49;;;;;;;;;;;;;;;;;;5045443;28;19928;-62
2023/07/08 11:40:15;;;;;;;;;;;;;;;;;;5047050;28;19955;-62
2023/07/08 11:42:42;;;;;;;;;;;;;;;;;;5046014;28;20247;-63
2023/07/08 11:45:08;;;;;;;;;;;;;;;;;;5047180;28;19925;-62
2023/07/08 11:47:33;;;;;;;;;;;;;;;;;;5046862;28;19969;-63
2023/07/08 11:49:59;;;;;;;;;;;;;;;;;;5045138;28;19924;-62
2023/07/08 11:52:25;;;;;;;;;;;;;;;;;;5046793;28;20600;-62
2023/07/08 11:54:51;;;;;;;;;;;;;;;;;;5046158;28;20716;-63
2023/07/08 11:57:17;;;;;;;;;;;;;;;;;;5046336;28;19925;-62
2023/07/08 11:59:44;;;;;;;;;;;;;;;;;;5045546;28;19921;-62
2023/07/08 12:02:10;;;;;;;;;;;;;;;;;;5060357;28;20561;-61
2023/07/08 12:04:37;;;;;;;;;;;;;;;;;;5044417;28;19921;-62
2023/07/08 12:07:03;;;;;;;;;;;;;;;;;;5043819;28;19968;-62
2023/07/08 12:09:30;;;;;;;;;;;;;;;;;;5044999;28;19925;-62
2023/07/08 12:11:56;;;;;;;;;;;;;;;;;;5044537;28;19950;-62
2023/07/08 12:14:22;;;;;;;;;;;;;;;;;;5045879;28;20587;-62
2023/07/08 12:16:48;;;;;;;;;;;;;;;;;;5046396;28;19925;-61
2023/07/08 12:19:13;;;;;;;;;;;;;;;;;;5046511;28;19924;-61
2023/07/08 12:21:39;;;;;;;;;;;;;;;;;;5036803;28;20535;-61
2023/07/08 12:24:05;;;;;;;;;;;;;;;;;;5040383;28;19924;-61
2023/07/08 12:26:31;;;;;;;;;;;;;;;;;;5046380;28;19968;-61
2023/07/08 12:28:57;;;;;;;;;;;;;;;;;;5046018;28;20649;-62
2023/07/08 12:31:23;;;;;;;;;;;;;;;;;;5045670;28;20146;-62
2023/07/08 12:33:50;;;;;;;;;;;;;;;;;;5045261;28;19929;-62
2023/07/08 12:36:16;;;;;;;;;;;;;;;;;;5045422;28;19928;-62
2023/07/08 12:38:42;;;;;;;;;;;;;;;;;;5045938;28;19935;-62
2023/07/08 12:41:07;;;;;;;;;;;;;;;;;;5045629;28;20005;-62
2023/07/08 12:43:33;;;;;;;;;;;;;;;;;;5045155;28;19971;-62
2023/07/08 12:45:59;;;;;;;;;;;;;;;;;;5044927;28;20449;-62
2023/07/08 12:48:25;;;;;;;;;;;;;;;;;;5044188;28;20011;-62
2023/07/08 12:50:51;;;;;;;;;;;;;;;;;;5044490;28;20015;-63
2023/07/08 12:53:17;;;;;;;;;;;;;;;;;;5046271;28;20016;-62
2023/07/08 12:55:43;;;;;;;;;;;;;;;;;;5045539;28;20394;-62
2023/07/08 12:58:09;;;;;;;;;;;;;;;;;;5045382;28;19928;-62
2023/07/08 13:00:35;;;;;;;;;;;;;;;;;;5045537;28;19925;-62
2023/07/08 13:03:01;;;;;;;;;;;;;;;;;;5045360;28;19935;-62
2023/07/08 13:05:27;;;;;;;;;;;;;;;;;;5044706;28;19924;-62
2023/07/08 13:07:53;;;;;;;;;;;;;;;;;;5045312;28;19924;-62
2023/07/08 13:10:19;;;;;;;;;;;;;;;;;;5045792;28;19979;-62
2023/07/08 13:12:45;;;;;;;;;;;;;;;;;;5044619;28;19947;-62
2023/07/08 13:15:11;;;;;;;;;;;;;;;;;;5044655;28;19929;-62
2023/07/08 13:17:38;;;;;;;;;;;;;;;;;;5044618;28;19925;-62
2023/07/08 13:20:04;;;;;;;;;;;;;;;;;;5043806;28;19971;-62
2023/07/08 13:22:30;;;;;;;;;;;;;;;;;;5030872;28;19925;-62
2023/07/08 13:24:56;;;;;;;;;;;;;;;;;;5044925;28;19925;-62
2023/07/08 13:27:22;;;;;;;;;;;;;;;;;;5045187;28;19931;-63
2023/07/08 13:29:48;;;;;;;;;;;;;;;;;;5044507;28;19924;-62
2023/07/08 13:32:15;;;;;;;;;;;;;;;;;;5044551;28;19975;-62
2023/07/08 13:34:41;;;;;;;;;;;;;;;;;;5043702;28;20096;-62
2023/07/08 13:37:06;;;;;;;;;;;;;;;;;;5044835;28;19971;-62
2023/07/08 13:39:33;;;;;;;;;;;;;;;;;;5044412;28;19979;-62
2023/07/08 13:41:59;;;;;;;;;;;;;;;;;;5043478;28;19951;-62
2023/07/08 13:44:25;;;;;;;;;;;;;;;;;;5044414;28;19928;-62
2023/07/08 13:46:54;;;;;;;;;;;;;;;;;;5044666;28;20432;-62
2023/07/08 13:49:19;;;;;;;;;;;;;;;;;;5044581;28;19932;-62
2023/07/08 13:51:45;;;;;;;;;;;;;;;;;;5042736;28;20297;-62
2023/07/08 13:54:11;;;;;;;;;;;;;;;;;;5043919;28;19973;-62
2023/07/08 13:56:37;;;;;;;;;;;;;;;;;;5059687;28;19933;-62
2023/07/08 13:59:03;;;;;;;;;;;;;;;;;;5044053;28;19970;-62
2023/07/08 14:01:29;;;;;;;;;;;;;;;;;;5043368;28;19989;-62
2023/07/08 14:03:55;;;;;;;;;;;;;;;;;;5042876;28;20391;-62
2023/07/08 14:06:21;;;;;;;;;;;;;;;;;;5043666;28;19925;-62
2023/07/08 14:08:47;;;;;;;;;;;;;;;;;;5044025;28;19948;-62
2023/07/08 14:11:13;;;;;;;;;;;;;;;;;;5043916;28;19924;-62
2023/07/08 14:13:39;;;;;;;;;;;;;;;;;;5042983;28;20283;-62
2023/07/08 14:16:05;;;;;;;;;;;;;;;;;;5043448;28;20381;-62
2023/07/08 14:18:31;;;;;;;;;;;;;;;;;;5043803;28;19924;-62
2023/07/08 14:20:58;;;;;;;;;;;;;;;;;;5039741;28;19932;-62
2023/07/08 14:23:24;;;;;;;;;;;;;;;;;;5033165;28;20397;-63
2023/07/08 14:25:50;;;;;;;;;;;;;;;;;;5043437;28;19928;-62
2023/07/08 14:28:16;;;;;;;;;;;;;;;;;;5043554;28;19932;-62
2023/07/08 14:30:41;;;;;;;;;;;;;;;;;;5043494;28;19929;-62
2023/07/08 14:33:07;;;;;;;;;;;;;;;;;;5043076;28;19976;-62
2023/07/08 14:35:33;;;;;;;;;;;;;;;;;;5042235;28;19968;-62
2023/07/08 14:37:59;;;;;;;;;;;;;;;;;;5043408;28;19929;-62
2023/07/08 14:40:25;;;;;;;;;;;;;;;;;;5043282;28;19924;-62
2023/07/08 14:42:51;;;;;;;;;;;;;;;;;;5043472;28;20354;-62
2023/07/08 14:45:17;;;;;;;;;;;;;;;;;;5043796;28;19983;-62
2023/07/08 14:47:43;;;;;;;;;;;;;;;;;;5042189;28;20374;-61
2023/07/08 14:50:09;;;;;;;;;;;;;;;;;;5042432;28;19932;-62
2023/07/08 14:52:35;;;;;;;;;;;;;;;;;;5043125;28;19932;-62
2023/07/08 14:55:01;;;;;;;;;;;;;;;;;;5043559;28;19976;-63
2023/07/08 14:57:27;;;;;;;;;;;;;;;;;;5042853;28;20370;-62
2023/07/08 14:59:53;;;;;;;;;;;;;;;;;;5042056;28;19986;-63
2023/07/08 15:02:19;;;;;;;;;;;;;;;;;;5043322;28;19982;-62
2023/07/08 15:04:45;;;;;;;;;;;;;;;;;;5042375;28;19924;-62
2023/07/08 15:07:10;;;;;;;;;;;;;;;;;;5042893;28;19936;-62
2023/07/08 15:09:36;;;;;;;;;;;;;;;;;;5042331;28;19943;-62
2023/07/08 15:12:02;;;;;;;;;;;;;;;;;;5042289;28;19929;-62
2023/07/08 15:14:28;;;;;;;;;;;;;;;;;;5042298;28;20405;-62
2023/07/08 15:16:54;;;;;;;;;;;;;;;;;;5043171;28;19975;-63
2023/07/08 15:19:20;;;;;;;;;;;;;;;;;;5042679;28;20004;-62
2023/07/08 15:21:46;;;;;;;;;;;;;;;;;;5032396;28;19925;-62
2023/07/08 15:24:13;;;;;;;;;;;;;;;;;;5038661;28;19925;-62
2023/07/08 15:26:38;;;;;;;;;;;;;;;;;;5042902;28;19925;-62
2023/07/08 15:29:04;;;;;;;;;;;;;;;;;;5042740;28;19947;-62
2023/07/08 15:31:30;;;;;;;;;;;;;;;;;;5042391;28;20718;-62
2023/07/08 15:33:56;;;;;;;;;;;;;;;;;;5042704;28;19932;-63
2023/07/08 15:36:22;;;;;;;;;;;;;;;;;;5042118;28;19932;-63
2023/07/08 15:38:48;;;;;;;;;;;;;;;;;;5043179;28;19968;-62
2023/07/08 15:41:14;;;;;;;;;;;;;;;;;;5042233;28;19928;-62
2023/07/08 15:43:40;;;;;;;;;;;;;;;;;;5042167;28;19936;-62
2023/07/08 15:46:06;;;;;;;;;;;;;;;;;;5042041;28;19920;-61
2023/07/08 15:48:32;;;;;;;;;;;;;;;;;;5042829;28;19939;-61
2023/07/08 15:50:58;;;;;;;;;;;;;;;;;;5039049;28;19975;-61
2023/07/08 15:53:23;;;;;;;;;;;;;;;;;;5028355;28;19929;-61
2023/07/08 15:55:50;;;;;;;;;;;;;;;;;;5034320;28;19929;-60
2023/07/08 15:58:16;;;;;;;;;;;;;;;;;;5042538;28;19972;-60
2023/07/08 16:00:42;;;;;;;;;;;;;;;;;;5037297;28;19959;-62
2023/07/08 16:03:08;;;;;;;;;;;;;;;;;;5042511;28;19972;-61
2023/07/08 16:05:35;;;;;;;;;;;;;;;;;;5041259;28;19932;-61
2023/07/08 16:08:02;;;;;;;;;;;;;;;;;;5042636;28;19929;-61
2023/07/08 16:10:28;;;;;;;;;;;;;;;;;;5042514;28;20016;-61
2023/07/08 16:12:56;;;;;;;;;;;;;;;;;;5041876;28;20348;-61
2023/07/08 16:15:22;;;;;;;;;;;;;;;;;;5042316;28;20435;-61
2023/07/08 16:17:47;;;;;;;;;;;;;;;;;;5042367;28;19925;-61
2023/07/08 16:20:13;;;;;;;;;;;;;;;;;;5041497;28;19966;-61
2023/07/08 16:22:39;;;;;;;;;;;;;;;;;;5029409;28;19952;-61
2023/07/08 16:25:05;;;;;;;;;;;;;;;;;;5046084;28;19925;-61
2023/07/08 16:27:31;;;;;;;;;;;;;;;;;;5044828;28;19928;-61
2023/07/08 16:29:57;;;;;;;;;;;;;;;;;;5045718;28;20345;-61
2023/07/08 16:32:23;;;;;;;;;;;;;;;;;;5045903;28;19925;-61
2023/07/08 16:34:49;;;;;;;;;;;;;;;;;;5045389;28;19932;-61
2023/07/08 16:37:15;;;;;;;;;;;;;;;;;;5045452;28;20486;-61